createdAt,value
2019-01-06T00:00:00.615Z,7.40
2019-01-06T02:26:45.142Z,1.90
2019-01-06T02:29:33.543Z,0.93
2019-01-06T02:32:22.221Z,1.90
2019-01-06T02:35:37.204Z,1.23
2019-01-06T02:38:37.566Z,0.77
2019-01-06T09:42:38.257Z,5.07
2019-01-06T14:59:38.204Z,11.87
2019-01-06T16:47:13.369Z,7.67
2019-01-06T16:50:19.541Z,7.62
2019-01-06T16:53:26.190Z,8.20
2019-01-06T17:09:11.369Z,7.37
2019-01-06T19:20:27.788Z,8.47
2019-01-06T19:23:18.098Z,10.33
2019-01-06T19:26:23.063Z,10.67
2019-01-06T19:29:31.378Z,13.07
2019-01-06T19:32:37.687Z,13.30
2019-01-06T19:35:42.971Z,11.60
2019-01-06T19:38:50.349Z,10.90
2019-01-06T19:41:57.203Z,16.20
2019-01-06T19:44:45.087Z,12.97
2019-01-06T19:47:47.387Z,11.83
2019-01-06T19:50:53.708Z,12.97
2019-01-06T19:54:08.243Z,16.03
2019-01-06T19:57:14.493Z,17.83
2019-01-06T20:00:22.193Z,22.97
2019-01-06T20:06:48.082Z,16.40
2019-01-06T20:09:58.730Z,17.10
2019-01-06T20:12:49.299Z,14.00
2019-01-06T20:16:04.386Z,19.60
2019-01-06T20:19:15.323Z,18.02
2019-01-06T20:22:29.009Z,15.53
2019-01-06T20:25:25.063Z,18.93
2019-01-06T20:28:22.383Z,17.67
2019-01-06T20:31:32.477Z,15.93
2019-01-06T20:34:24.120Z,18.47
2019-01-06T20:37:33.390Z,18.07
2019-01-06T20:40:21.055Z,16.30
2019-01-06T20:43:21.841Z,13.20
2019-01-06T20:46:31.046Z,18.63
2019-01-06T20:49:32.867Z,18.33
2019-01-06T20:52:41.636Z,17.63
2019-01-06T20:55:29.695Z,22.73
2019-01-06T20:58:29.606Z,21.47
2019-01-06T21:01:38.584Z,16.13
2019-01-06T21:04:52.361Z,15.77
2019-01-06T21:07:49.987Z,18.87
2019-01-06T21:10:49.841Z,21.67
2019-01-06T21:14:08.167Z,16.23
2019-01-06T21:17:11.495Z,17.30
2019-01-06T21:20:06.239Z,19.33
2019-01-06T21:26:29.912Z,20.43
2019-01-06T21:29:21.852Z,18.17
2019-01-06T21:32:28.546Z,21.77
2019-01-06T21:35:35.382Z,25.73
2019-01-06T21:41:58.704Z,23.67
2019-01-06T21:44:53.155Z,17.50
2019-01-06T21:47:52.489Z,20.43
2019-01-06T21:51:01.747Z,21.20
2019-01-06T21:53:51.902Z,18.90
2019-01-06T21:56:48.236Z,19.43
2019-01-06T21:59:41.319Z,19.07
2019-01-06T22:02:41.006Z,18.20
2019-01-06T22:05:28.699Z,23.10
2019-01-06T22:08:35.586Z,22.90
2019-01-06T22:11:32.764Z,17.87
2019-01-06T22:14:27.883Z,21.37
2019-01-06T22:17:35.426Z,22.10
2019-01-06T22:20:57.194Z,16.53
2019-01-06T22:23:44.355Z,21.97
2019-01-06T22:26:43.954Z,18.27
2019-01-06T22:29:49.597Z,19.93
2019-01-06T22:36:19.156Z,21.50
2019-01-06T22:39:10.868Z,24.83
2019-01-06T22:42:07.598Z,24.67
2019-01-06T22:45:03.968Z,23.50
2019-01-06T22:51:10.340Z,20.97
2019-01-06T22:54:01.581Z,24.87
2019-01-06T22:57:08.540Z,28.73
2019-01-06T23:00:07.441Z,26.50
2019-01-06T23:03:13.815Z,23.80
2019-01-06T23:06:07.635Z,25.93
2019-01-06T23:09:07.299Z,24.80
2019-01-06T23:11:55.071Z,24.57
2019-01-06T23:14:42.080Z,25.20
2019-01-06T23:17:32.224Z,24.23
2019-01-06T23:20:24.650Z,23.63
2019-01-06T23:23:12.972Z,23.57
2019-01-06T23:26:02.815Z,27.57
2019-01-06T23:39:03.618Z,28.33
2019-01-06T23:41:51.559Z,30.30
2019-01-06T23:44:42.979Z,25.87
2019-01-06T23:47:59.172Z,23.27
2019-01-06T23:50:46.504Z,30.27
2019-01-06T23:53:33.977Z,27.80
2019-01-06T23:56:27.090Z,24.70
2019-01-06T23:59:16.848Z,26.80
